Time;durP1;ratioP1;P1;durP2;ratioP2;P2;SDS_P1;SDS_P2;PMS_P1;PMS_P2;Temp;Humidity;BMP_temperature;BMP_pressure;BME280_temperature;BME280_humidity;BME280_pressure;Samples;Min_cycle;Max_cycle;Signal;HPM_P1;HPM_P2
2022/07/12 00:01:34;;;;;;;4.10;2.87;;;;;;;15.39;90.87;102295.88;5018828;28;20026;-88
2022/07/12 00:04:00;;;;;;;4.68;3.17;;;;;;;15.32;91.62;102296.06;5010447;28;20036;-89
2022/07/12 00:06:25;;;;;;;5.67;3.43;;;;;;;15.27;91.04;102293.31;5011526;28;20057;-88
2022/07/12 00:08:50;;;;;;;4.33;3.53;;;;;;;15.26;91.36;102300.59;5011302;28;20049;-89
2022/07/12 00:11:15;;;;;;;5.60;3.53;;;;;;;15.23;91.32;102290.31;5010987;28;20586;-89
2022/07/12 00:13:41;;;;;;;7.83;3.70;;;;;;;15.15;91.65;102285.38;5023230;28;20208;-89
2022/07/12 00:16:06;;;;;;;3.87;3.23;;;;;;;15.13;91.10;102284.81;5030458;28;20033;-88
2022/07/12 00:18:32;;;;;;;4.88;3.10;;;;;;;15.11;91.69;102285.03;5030212;28;20495;-88
2022/07/12 00:20:57;;;;;;;4.43;3.23;;;;;;;15.08;91.56;102282.03;5024428;28;20044;-89
2022/07/12 00:23:22;;;;;;;4.77;3.47;;;;;;;15.01;90.89;102282.25;5010379;28;20022;-89
2022/07/12 00:25:51;;;;;;;6.70;3.30;;;;;;;14.95;90.75;102286.78;4993974;28;20394;-88
2022/07/12 00:28:16;;;;;;;4.27;3.43;;;;;;;14.94;91.22;102282.44;5010648;28;20287;-89
2022/07/12 00:30:47;;;;;;;5.15;3.25;;;;;;;14.74;92.21;102268.69;4990536;28;20508;-89
2022/07/12 00:33:13;;;;;;;3.65;3.17;;;;;;;14.79;91.60;102287.66;4992249;28;20499;-88
2022/07/12 00:35:50;;;;;;;3.57;3.20;;;;;;;14.70;91.57;102279.16;5010221;28;20116;-89
2022/07/12 00:38:16;;;;;;;4.70;3.05;;;;;;;14.59;92.24;102275.50;4992479;28;20054;-89
2022/07/12 00:40:47;;;;;;;4.23;3.13;;;;;;;14.60;92.36;102285.22;5008764;28;20543;-89
2022/07/12 00:43:21;;;;;;;6.45;3.13;;;;;;;14.49;92.76;102268.09;5010446;28;20037;-90
2022/07/12 00:45:46;;;;;;;4.65;3.08;;;;;;;14.57;93.07;102274.94;5009962;28;20048;-89
2022/07/12 00:48:17;;;;;;;3.70;2.80;;;;;;;14.57;92.65;102276.78;5006146;28;20021;-89
2022/07/12 00:50:47;;;;;;;3.00;2.70;;;;;;;14.49;92.31;102268.09;4992363;28;20077;-89
2022/07/12 00:53:23;;;;;;;4.35;2.78;;;;;;;14.36;91.69;102258.47;5009336;28;20041;-89
2022/07/12 00:55:54;;;;;;;2.90;2.60;;;;;;;14.44;93.14;102280.66;5009769;28;20144;-89
2022/07/12 00:58:22;;;;;;;3.17;2.87;;;;;;;14.30;93.26;102264.84;5010473;28;20287;-89
2022/07/12 01:01:04;;;;;;;3.58;2.90;;;;;;;14.33;92.60;102272.44;4990515;28;20463;-91
2022/07/12 01:03:33;;;;;;;2.83;2.63;;;;;;;14.24;93.12;102274.75;4992866;28;20018;-85
2022/07/12 01:05:59;;;;;;;4.55;2.72;;;;;;;14.16;93.40;102263.56;5010586;28;20022;-85
2022/07/12 01:08:34;;;;;;;4.45;2.90;;;;;;;14.09;93.49;102267.22;5010528;28;20033;-85
2022/07/12 01:11:44;;;;;;;3.83;2.63;;;;;;;14.20;92.49;102287.06;5009403;28;20029;-85
2022/07/12 01:14:17;;;;;;;3.53;2.90;;;;;;;14.02;94.07;102269.28;5009378;28;20095;-86
2022/07/12 01:16:52;;;;;;;3.90;2.83;;;;;;;13.99;94.05;102259.00;5016766;28;20032;-85
2022/07/12 01:19:20;;;;;;;3.17;2.70;;;;;;;14.02;94.49;102272.00;5010566;28;20061;-86
2022/07/12 01:21:48;;;;;;;4.03;2.40;;;;;;;14.04;93.94;102272.56;5009791;28;20805;-86
2022/07/12 01:24:14;;;;;;;4.07;2.60;;;;;;;14.00;94.24;102276.81;5013853;28;20026;-85
2022/07/12 01:26:40;;;;;;;3.20;2.90;;;;;;;13.96;94.75;102294.50;5014122;28;20385;-86
2022/07/12 01:29:12;;;;;;;5.38;2.95;;;;;;;13.78;94.98;102269.44;5010438;28;20026;-86
2022/07/12 01:31:47;;;;;;;7.00;3.20;;;;;;;13.81;94.42;102280.81;5046733;22;20041;-85
2022/07/12 01:34:23;;;;;;;4.10;3.17;;;;;;;13.85;95.03;102298.13;5010247;28;20030;-86
2022/07/12 01:36:57;;;;;;;4.25;3.10;;;;;;;13.72;94.53;102291.97;5009670;28;20018;-85
2022/07/12 01:39:42;;;;;;;3.73;3.20;;;;;;;13.69;94.60;102297.84;5010602;28;20030;-85
2022/07/12 01:42:38;;;;;;;4.90;3.10;;;;;;;13.61;94.74;102285.56;5022435;28;20376;-85
2022/07/12 01:45:47;;;;;;;4.82;3.03;;;;;;;13.70;94.35;102304.06;5029208;28;20115;-85
2022/07/12 01:48:22;;;;;;;7.35;2.72;;;;;;;13.59;94.64;102284.19;4930273;29;20501;-85
2022/07/12 01:51:16;;;;;;;3.00;2.70;;;;;;;13.57;94.39;102289.00;4914575;29;20036;-85
2022/07/12 01:53:47;;;;;;;3.08;2.47;;;;;;;13.58;95.04;102283.41;4933087;29;20039;-85
2022/07/12 01:56:33;;;;;;;4.90;2.60;;;;;;;13.57;94.86;102289.00;4933880;29;20083;-85
2022/07/12 01:59:20;;;;;;;;;;;;;;;;;;;;;
2022/07/12 02:02:02;;;;;;;3.40;3.10;;;;;;;13.47;95.29;102284.25;4932509;29;20058;-85
2022/07/12 02:05:13;;;;;;;;;;;;;;;;;;;;;
2022/07/12 02:07:57;;;;;;;3.77;2.90;;;;;;;13.46;95.21;102282.63;4910908;29;20040;-85
2022/07/12 02:13:47;;;;;;;4.60;3.20;;;;;;;13.35;95.89;102278.88;4971882;28;20045;-84
2022/07/12 02:16:50;;;;;;;3.50;3.20;;;;;;;13.30;96.03;102273.44;4937984;28;20506;-85
2022/07/12 02:22:28;;;;;;;5.05;3.50;;;;;;;13.31;95.84;102269.69;5049917;28;20064;-84
2022/07/12 02:24:54;;;;;;;3.80;3.50;;;;;;;13.28;95.98;102270.16;5053169;28;20025;-84
2022/07/12 02:27:35;;;;;;;3.50;3.20;;;;;;;13.21;96.07;102258.72;5050206;28;20037;-86
2022/07/12 02:30:18;;;;;;;4.07;3.20;;;;;;;13.17;96.17;102266.44;5052454;28;20025;-85
2022/07/12 02:32:44;;;;;;;3.95;3.08;;;;;;;13.11;96.25;102276.31;5051845;28;20036;-85
2022/07/12 02:35:19;;;;;;;3.23;2.90;;;;;;;13.03;96.15;102277.50;5046618;28;20021;-85
2022/07/12 02:37:54;;;;;;;3.30;2.80;;;;;;;13.01;96.39;102276.91;5035295;28;20098;-85
2022/07/12 02:43:29;;;;;;;3.30;3.00;;;;;;;12.96;96.08;102279.50;5014418;28;20045;-85
2022/07/12 02:46:16;;;;;;;4.20;2.90;;;;;;;12.94;95.80;102286.19;4997792;28;20029;-85
2022/07/12 02:49:37;;;;;;;4.25;2.80;;;;;;;12.87;95.78;102289.03;5014155;28;20036;-85
2022/07/12 02:52:24;;;;;;;2.90;2.70;;;;;;;12.85;96.30;102289.22;4917693;29;20050;-86
2022/07/12 02:55:31;;;;;;;3.50;3.20;;;;;;;12.76;96.83;102296.06;4951798;29;20126;-85
2022/07/12 02:58:30;;;;;;;3.53;3.20;;;;;;;12.66;96.64;102274.31;4951949;29;20042;-85
2022/07/12 03:01:58;;;;;;;3.47;3.17;;;;;;;12.70;95.67;102292.41;4951205;28;20848;-85
2022/07/12 03:05:42;;;;;;;3.33;2.95;;;;;;;12.57;95.87;102272.00;4913875;28;20569;-85
2022/07/12 03:12:31;;;;;;;5.65;3.20;;;;;;;12.68;96.60;102288.34;4969544;23;20073;-85
2022/07/12 03:15:08;;;;;;;3.90;3.20;;;;;;;12.55;96.59;102271.41;5011507;28;20092;-85
2022/07/12 03:18:03;;;;;;;3.72;3.25;;;;;;;12.51;96.61;102267.53;5012057;28;20033;-85
2022/07/12 03:24:23;;;;;;;4.95;3.05;;;;;;;12.51;96.67;102275.63;4991520;28;20043;-85
2022/07/12 03:27:27;;;;;;;3.78;3.38;;;;;;;12.43;96.86;102270.56;4992552;28;20034;-85
2022/07/12 03:29:52;;;;;;;5.13;3.80;;;;;;;12.48;97.15;102273.38;4992099;28;20022;-85
2022/07/12 03:33:00;;;;;;;4.87;3.30;;;;;;;12.44;97.04;102277.59;5003765;28;20664;-86
2022/07/12 03:36:20;;;;;;;5.93;3.57;;;;;;;12.40;97.37;102277.25;5011531;28;20465;-85
2022/07/12 03:39:43;;;;;;;4.00;3.60;;;;;;;12.49;96.88;102280.41;5011238;28;20276;-85
2022/07/12 03:42:39;;;;;;;6.18;3.30;;;;;;;12.36;97.47;102265.31;4911860;29;20059;-85
2022/07/12 03:45:14;;;;;;;6.32;3.53;;;;;;;12.31;97.40;102270.59;4970212;28;20042;-85
2022/07/12 03:47:41;;;;;;;6.03;3.80;;;;;;;12.42;98.05;102290.44;4976386;28;20040;-85
2022/07/12 03:50:15;;;;;;;4.13;3.70;;;;;;;12.35;98.19;102277.13;5011496;28;20030;-85
2022/07/12 03:52:50;;;;;;;3.83;3.42;;;;;;;12.34;97.81;102272.00;5010113;28;20037;-85
2022/07/12 03:55:24;;;;;;;5.03;3.88;;;;;;;12.45;98.14;102294.56;5010070;28;20477;-85
2022/07/12 03:57:53;;;;;;;4.13;3.72;;;;;;;12.38;97.84;102289.31;4993987;28;20030;-85
2022/07/12 04:00:28;;;;;;;4.20;3.80;;;;;;;12.30;98.85;102278.88;5011262;28;20071;-85
2022/07/12 04:03:01;;;;;;;4.40;4.00;;;;;;;12.36;98.28;102280.66;5010012;28;20041;-85
2022/07/12 04:05:35;;;;;;;4.07;3.70;;;;;;;12.43;98.05;102281.31;5010695;28;20343;-85
2022/07/12 04:10:45;;;;;;;4.70;4.25;;;;;;;12.55;98.00;102275.94;5011264;28;20041;-85
2022/07/12 04:13:13;;;;;;;4.23;3.73;;;;;;;12.62;97.68;102273.97;5009497;28;20038;-85
2022/07/12 04:15:49;;;;;;;4.20;3.80;;;;;;;12.62;98.08;102267.75;5010918;28;20037;-85
2022/07/12 04:18:33;;;;;;;5.10;4.18;;;;;;;12.67;98.07;102265.19;5010982;28;20052;-85
2022/07/12 04:21:01;;;;;;;6.03;4.10;;;;;;;12.67;97.60;102266.00;5010601;28;20021;-85
2022/07/12 04:23:35;;;;;;;4.63;4.22;;;;;;;12.65;97.80;102268.13;4990941;28;20026;-85
2022/07/12 04:26:13;;;;;;;4.50;4.10;;;;;;;12.65;97.86;102283.41;4991895;28;20072;-85
2022/07/12 04:28:45;;;;;;;5.20;3.90;;;;;;;12.66;97.86;102272.44;5005297;28;20454;-85
2022/07/12 04:31:11;;;;;;;5.43;4.28;;;;;;;12.71;97.76;102271.72;5009692;28;20197;-85
2022/07/12 04:33:54;;;;;;;4.87;4.30;;;;;;;12.82;97.33;102276.25;5010564;28;20034;-87
2022/07/12 04:36:20;;;;;;;4.97;4.53;;;;;;;12.85;96.86;102274.97;5013056;28;20029;-87
2022/07/12 04:38:45;;;;;;;4.87;4.40;;;;;;;12.96;97.56;102292.97;5009960;28;20169;-87
2022/07/12 04:41:10;;;;;;;6.70;5.13;;;;;;;13.02;97.51;102293.88;5010027;28;20097;-87
2022/07/12 04:43:35;;;;;;;6.10;5.10;;;;;;;13.07;97.85;102296.66;5019700;28;20124;-87
2022/07/12 04:46:11;;;;;;;6.90;5.90;;;;;;;13.13;99.82;102303.81;5011270;28;20400;-89
2022/07/12 04:48:37;;;;;;;8.43;4.88;;;;;;;13.33;98.33;102300.69;5010641;28;20088;-86
2022/07/12 04:51:03;;;;;;;8.33;5.20;;;;;;;13.42;98.34;102298.44;5008798;28;20481;-84
2022/07/12 04:53:29;;;;;;;5.65;4.97;;;;;;;13.52;97.92;102295.13;5007513;28;20400;-85
2022/07/12 04:55:55;;;;;;;9.70;5.03;;;;;;;13.65;98.29;102294.00;5006474;28;20388;-85
2022/07/12 04:58:22;;;;;;;6.03;5.47;;;;;;;14.18;97.95;102299.19;5007102;28;20042;-85
2022/07/12 05:00:48;;;;;;;5.93;5.07;;;;;;;15.74;93.68;102299.97;4981652;28;20509;-85
2022/07/12 05:03:51;;;;;;;6.33;5.00;;;;;;;17.59;88.40;102307.44;5005481;28;20288;-86
2022/07/12 05:06:18;;;;;;;5.57;4.78;;;;;;;19.35;76.99;102324.16;4931247;28;20146;-86
2022/07/12 05:08:59;;;;;;;6.13;4.28;;;;;;;20.49;74.41;102311.53;5007875;28;20081;-85
2022/07/12 05:11:28;;;;;;;6.45;4.47;;;;;;;21.45;67.67;102304.31;4979757;28;20045;-84
2022/07/12 05:14:01;;;;;;;7.20;4.97;;;;;;;22.22;66.53;102315.88;5007723;28;20030;-85
2022/07/12 05:25:37;;;;;;;5.63;5.03;;;;;;;24.42;60.77;102331.44;5011344;28;20484;-86
2022/07/12 05:28:03;;;;;;;7.32;5.47;;;;;;;24.40;55.05;102344.66;4980896;28;20534;-87
2022/07/12 05:30:37;;;;;;;5.70;5.30;;;;;;;24.75;57.68;102350.28;5013125;28;20040;-87
2022/07/12 05:42:11;;;;;;;6.88;6.03;;;;;;;25.48;54.88;102368.94;5206012;22;20057;-92
2022/07/12 05:44:46;;;;;;;7.38;6.25;;;;;;;25.01;53.49;102364.03;4992361;28;20511;-88
2022/07/12 05:47:11;;;;;;;6.75;6.00;;;;;;;24.93;53.47;102368.38;5013781;28;21490;-90
2022/07/12 05:49:54;;;;;;;7.00;6.30;;;;;;;24.99;54.57;102360.81;5009689;28;20126;-88
2022/07/12 05:55:30;;;;;;;8.10;7.40;;;;;;;24.78;54.37;102371.56;4982032;28;20056;-88
2022/07/12 06:04:08;;;;;;;;;;;;;;;;;;;;;
2022/07/12 06:07:09;;;;;;;;;;;;;;;;;;;;;
2022/07/12 06:09:35;;;;;;;8.77;7.63;;;;;;;22.04;64.41;102393.97;4982787;28;20044;-90
2022/07/12 06:12:11;;;;;;;8.13;7.43;;;;;;;21.83;65.19;102394.31;4993163;28;20027;-89
2022/07/12 06:14:36;;;;;;;9.20;7.70;;;;;;;21.57;66.36;102388.41;5008477;28;20105;-89
2022/07/12 06:17:11;;;;;;;9.83;8.83;;;;;;;21.27;67.63;102382.28;5013299;28;20421;-89
2022/07/12 06:19:36;;;;;;;9.52;8.07;;;;;;;21.28;68.40;102392.06;5023800;22;20558;-91
2022/07/12 06:22:13;;;;;;;10.13;9.00;;;;;;;21.05;69.38;102389.09;5015485;28;20070;-90
2022/07/12 06:24:39;;;;;;;10.13;8.83;;;;;;;20.90;69.38;102384.63;5012638;28;20297;-87
2022/07/12 06:27:40;;;;;;;10.65;9.00;;;;;;;21.25;69.15;102403.56;5027294;28;20122;-88
2022/07/12 06:30:09;;;;;;;9.20;8.30;;;;;;;21.19;69.61;102391.88;5020599;28;20116;-89
2022/07/12 06:32:48;;;;;;;10.30;8.43;;;;;;;21.24;69.33;102386.38;4995539;28;20292;-88
2022/07/12 06:35:14;;;;;;;9.60;8.13;;;;;;;21.17;69.19;102392.19;5009518;28;20108;-87
2022/07/12 06:37:47;;;;;;;9.30;8.20;;;;;;;21.11;70.21;102389.84;5012801;28;20053;-88
2022/07/12 06:40:21;;;;;;;13.65;8.07;;;;;;;21.05;70.89;102380.91;5013028;28;20122;-90
2022/07/12 06:42:58;;;;;;;18.13;8.98;;;;;;;20.92;72.22;102379.69;5010513;28;20033;-90
2022/07/12 06:45:24;;;;;;;9.77;8.75;;;;;;;21.02;71.41;102395.91;5010857;28;20485;-86
2022/07/12 06:48:01;;;;;;;9.50;7.90;;;;;;;21.03;71.38;102381.19;5011617;28;20040;-88
2022/07/12 06:50:33;;;;;;;9.52;8.32;;;;;;;21.14;72.04;102394.69;5011551;28;20623;-88
2022/07/12 06:53:01;;;;;;;10.27;8.63;;;;;;;21.31;71.48;102403.19;5011447;28;20034;-85
2022/07/12 06:55:27;;;;;;;9.70;7.60;;;;;;;21.25;70.96;102396.19;5011861;28;20026;-86
2022/07/12 06:57:52;;;;;;;8.23;7.37;;;;;;;;;;5011380;28;20289;-86
2022/07/12 07:00:19;;;;;;;7.20;6.60;;;;;;;21.02;70.71;102398.63;5012331;28;20022;-88
2022/07/12 07:02:50;;;;;;;11.45;6.70;;;;;;;21.00;71.34;102409.00;5010434;28;20084;-91
2022/07/12 07:06:07;;;;;;;7.15;5.85;;;;;;;20.99;70.49;102403.88;4944537;28;20046;-89
2022/07/12 07:08:42;;;;;;;9.63;6.40;;;;;;;21.12;71.13;102394.19;4992572;28;20026;-87
2022/07/12 07:11:09;;;;;;;10.20;5.57;;;;;;;21.27;71.06;102391.25;5002805;28;20292;-87
2022/07/12 07:13:40;;;;;;;6.13;5.53;;;;;;;21.36;69.31;102399.59;5007659;28;20456;-86
2022/07/12 07:19:03;;;;;;;7.18;5.35;;;;;;;21.62;69.14;102405.53;5017904;22;20058;-88
2022/07/12 07:22:12;;;;;;;8.70;4.75;;;;;;;21.83;68.73;102401.66;5021818;28;20049;-87
2022/07/12 07:27:38;;;;;;;5.95;5.40;;;;;;;22.11;68.44;102399.06;5091664;23;20049;-88
2022/07/12 07:33:15;;;;;;;5.78;5.20;;;;;;;22.53;66.43;102391.78;5009424;28;20057;-88
2022/07/12 07:35:43;;;;;;;8.27;4.93;;;;;;;22.64;64.84;102393.22;5010821;28;20045;-84
2022/07/12 07:38:45;;;;;;;6.50;5.30;;;;;;;22.98;64.97;102399.41;4993636;28;20328;-87
2022/07/12 07:44:45;;;;;;;7.18;5.68;;;;;;;23.53;62.24;102393.03;4991875;28;20080;-87
2022/07/12 07:47:18;;;;;;;11.45;5.90;;;;;;;23.54;62.52;102385.66;5009362;28;20043;-87
2022/07/12 07:49:46;;;;;;;6.55;4.60;;;;;;;23.68;61.03;102386.41;5004590;28;20057;-86
2022/07/12 07:52:40;;;;;;;6.55;5.20;;;;;;;23.93;61.52;102400.56;5011061;28;20587;-88
2022/07/12 07:59:01;;;;;;;6.78;5.05;;;;;;;24.46;60.43;102392.72;5006179;28;20061;-88
2022/07/12 08:01:45;;;;;;;6.32;5.07;;;;;;;24.31;59.29;102382.97;5305319;23;20097;-87
2022/07/12 08:04:21;;;;;;;5.63;5.13;;;;;;;24.16;58.38;102378.69;5015636;28;20081;-88
2022/07/12 08:06:53;;;;;;;5.17;4.67;;;;;;;24.13;58.54;102382.03;5012311;28;20273;-87
2022/07/12 08:09:21;;;;;;;5.03;4.53;;;;;;;24.35;57.10;102397.66;5007539;28;20078;-87
2022/07/12 08:11:47;;;;;;;6.38;5.22;;;;;;;24.59;55.02;102390.97;5024164;28;20026;-88
2022/07/12 08:18:16;;;;;;;5.20;4.73;;;;;;;25.08;56.35;102390.97;4960871;28;20283;-87
2022/07/12 08:21:08;;;;;;;5.13;4.63;;;;;;;25.03;55.84;102391.13;5058040;23;20042;-88
2022/07/12 08:23:42;;;;;;;5.35;4.93;;;;;;;24.91;54.85;102376.13;4932312;29;20040;-87
2022/07/12 08:26:35;;;;;;;5.45;4.95;;;;;;;25.24;55.45;102394.88;4932125;29;20110;-88
2022/07/12 08:29:15;;;;;;;6.13;4.22;;;;;;;25.39;54.70;102390.88;4933616;29;20031;-88
2022/07/12 08:31:47;;;;;;;5.00;3.72;;;;;;;25.66;53.19;102377.16;4913627;29;20040;-88
2022/07/12 08:37:41;;;;;;;5.55;4.18;;;;;;;26.23;51.95;102395.34;4974733;28;20077;-90
2022/07/12 08:40:52;;;;;;;4.78;4.30;;;;;;;26.18;51.05;102405.69;4990962;28;20121;-86
2022/07/12 08:43:20;;;;;;;5.00;4.57;;;;;;;25.89;51.37;102390.72;4931501;29;20040;-88
2022/07/12 08:46:34;;;;;;;5.00;4.57;;;;;;;25.96;52.63;102397.31;4935108;28;20360;-88
2022/07/12 08:49:08;;;;;;;8.10;4.78;;;;;;;25.85;52.28;102396.84;4951117;29;20039;-86
2022/07/12 08:51:36;;;;;;;5.25;4.07;;;;;;;25.88;51.92;102394.59;4950576;29;20043;-87
2022/07/12 08:54:17;;;;;;;5.20;4.05;;;;;;;25.67;51.90;102411.72;4951340;29;20131;-86
2022/07/12 08:56:45;;;;;;;5.10;3.72;;;;;;;25.52;51.96;102410.25;4931877;29;20063;-86
2022/07/12 08:59:58;;;;;;;6.10;4.40;;;;;;;25.47;52.60;102400.25;4985058;28;20043;-86
2022/07/12 09:02:49;;;;;;;7.40;4.30;;;;;;;25.15;54.27;102416.00;4993355;28;20046;-85
2022/07/12 09:05:53;;;;;;;4.43;3.90;;;;;;;25.23;54.93;102417.16;4969918;28;20057;-84
2022/07/12 09:08:25;;;;;;;5.75;4.97;;;;;;;25.39;53.76;102414.72;4993173;28;20038;-85
2022/07/12 09:10:50;;;;;;;5.47;4.20;;;;;;;25.44;52.99;102409.13;4997226;28;20026;-85
2022/07/12 09:13:16;;;;;;;4.40;4.10;;;;;;;25.68;52.82;102407.84;4995790;28;20304;-85
2022/07/12 09:15:41;;;;;;;4.00;3.60;;;;;;;25.97;53.24;102415.41;4995094;28;20053;-84
2022/07/12 09:18:17;;;;;;;5.33;4.83;;;;;;;25.90;52.04;102414.28;5006612;28;20026;-84
2022/07/12 09:20:50;;;;;;;5.22;4.72;;;;;;;25.91;52.73;102411.22;5006619;28;20109;-84
2022/07/12 09:23:16;;;;;;;6.07;4.82;;;;;;;25.72;52.28;102414.31;4996361;28;20022;-84
2022/07/12 09:25:45;;;;;;;4.53;4.13;;;;;;;25.76;53.53;102415.25;4993328;28;20545;-83
2022/07/12 09:28:13;;;;;;;4.53;4.00;;;;;;;26.00;53.10;102398.28;4994608;28;20303;-84
2022/07/12 09:30:48;;;;;;;3.70;3.38;;;;;;;26.12;53.03;102405.06;5007960;28;20053;-84
2022/07/12 09:36:12;;;;;;;4.60;4.20;;;;;;;26.50;51.31;102404.31;5004606;28;20137;-87
2022/07/12 09:38:52;;;;;;;4.38;3.97;;;;;;;26.58;49.30;102397.16;4996777;28;20448;-91
2022/07/12 09:41:21;;;;;;;3.50;3.20;;;;;;;26.50;50.41;102397.97;5095496;23;20092;-88
2022/07/12 09:44:05;;;;;;;5.10;3.65;;;;;;;26.87;50.88;102387.31;5029495;28;20045;-88
2022/07/12 09:46:32;;;;;;;4.28;3.88;;;;;;;27.21;49.11;102391.78;5035711;28;20026;-86
2022/07/12 09:48:57;;;;;;;4.97;3.70;;;;;;;27.59;47.84;102398.31;5033668;28;20184;-86
2022/07/12 09:54:35;;;;;;;4.50;4.00;;;;;;;27.39;46.70;102386.16;4951105;28;20038;-87
2022/07/12 09:57:20;;;;;;;4.95;3.97;;;;;;;27.26;45.87;102388.03;5029114;28;20109;-86
2022/07/12 09:59:47;;;;;;;4.00;3.60;;;;;;;27.17;47.33;102387.31;5034496;28;20156;-86
2022/07/12 10:05:17;;;;;;;5.00;3.15;;;;;;;27.75;45.88;102383.94;5045588;28;20052;-85
2022/07/12 10:07:45;;;;;;;4.35;2.90;;;;;;;27.77;46.67;102379.69;5024147;28;20025;-85
2022/07/12 10:10:10;;;;;;;4.90;2.90;;;;;;;27.77;46.02;102382.44;5029319;28;20036;-86
2022/07/12 10:15:38;;;;;;;6.30;3.65;;;;;;;27.92;45.48;102386.53;5026212;28;20038;-86
2022/07/12 10:18:05;;;;;;;7.68;3.60;;;;;;;27.89;45.81;102384.44;5035266;28;20080;-86
2022/07/12 10:20:30;;;;;;;4.47;3.78;;;;;;;28.07;44.53;102382.28;5032878;28;20025;-86
2022/07/12 10:23:16;;;;;;;3.63;3.33;;;;;;;28.11;46.22;102383.25;5034128;28;20428;-86
2022/07/12 10:25:41;;;;;;;7.70;3.72;;;;;;;27.73;46.10;102364.19;5008245;28;20037;-85
2022/07/12 10:28:08;;;;;;;8.27;3.40;;;;;;;27.48;46.10;102375.09;5033631;28;20026;-85
2022/07/12 10:30:47;;;;;;;3.27;2.97;;;;;;;27.16;47.62;102380.97;5032319;28;20292;-85
2022/07/12 10:33:17;;;;;;;3.72;2.85;;;;;;;27.17;45.99;102370.81;5034238;28;20052;-85
2022/07/12 10:35:59;;;;;;;4.07;3.05;;;;;;;27.58;46.30;102377.44;5032485;28;20401;-85
2022/07/12 10:38:25;;;;;;;3.58;3.08;;;;;;;27.74;44.73;102374.06;5032731;28;20053;-85
2022/07/12 10:40:51;;;;;;;3.85;3.00;;;;;;;28.11;45.21;102372.22;5018484;28;20029;-86
2022/07/12 10:46:21;;;;;;;3.83;3.13;;;;;;;28.72;43.69;102369.84;5033259;28;20052;-85
2022/07/12 10:48:47;;;;;;;3.05;2.85;;;;;;;28.72;43.03;102369.84;5033429;23;20577;-85
2022/07/12 10:51:16;;;;;;;6.97;3.03;;;;;;;28.65;42.59;102372.38;5030049;28;20034;-86
2022/07/12 10:53:45;;;;;;;4.47;2.70;;;;;;;28.95;41.69;102366.63;5016419;28;20503;-85
2022/07/12 10:56:14;;;;;;;5.53;3.00;;;;;;;28.91;41.94;102365.69;5015402;28;20072;-86
2022/07/12 10:58:41;;;;;;;3.33;2.75;;;;;;;29.09;42.27;102361.53;5057679;23;20044;-86
2022/07/12 11:01:11;;;;;;;3.40;2.50;;;;;;;29.30;41.46;102355.03;5053750;28;20029;-85
2022/07/12 11:03:46;;;;;;;4.45;2.80;;;;;;;29.38;41.22;102367.91;5052059;28;20139;-85
2022/07/12 11:06:14;;;;;;;4.32;3.00;;;;;;;29.40;40.04;102357.31;5049979;28;20373;-86
2022/07/12 11:08:59;;;;;;;3.78;3.20;;;;;;;29.66;41.68;102366.31;5052050;28;20021;-88
2022/07/12 11:11:33;;;;;;;3.10;2.80;;;;;;;30.10;39.48;102371.81;5032624;28;20029;-87
2022/07/12 11:14:00;;;;;;;4.43;3.23;;;;;;;30.18;38.67;102364.50;5049649;28;20349;-87
2022/07/12 11:16:30;;;;;;;3.10;2.90;;;;;;;30.41;40.60;102367.41;5052232;28;20025;-87
2022/07/12 11:19:00;;;;;;;3.35;3.03;;;;;;;30.21;38.24;102364.59;5040947;28;20083;-88
2022/07/12 11:21:34;;;;;;;3.30;2.88;;;;;;;30.58;39.20;102366.28;5045462;28;20050;-85
2022/07/12 11:24:01;;;;;;;5.97;3.30;;;;;;;30.63;38.13;102368.78;5050366;28;20476;-85
2022/07/12 11:26:32;;;;;;;5.28;3.88;;;;;;;30.41;38.69;102350.03;5051528;28;20032;-87
2022/07/12 11:28:57;;;;;;;4.40;3.78;;;;;;;30.58;37.16;102349.69;5051890;28;20071;-88
2022/07/12 11:31:31;;;;;;;3.67;2.80;;;;;;;30.60;37.81;102363.97;5051187;28;20653;-85
2022/07/12 11:33:56;;;;;;;6.53;3.40;;;;;;;30.25;37.05;102350.06;5050104;28;20290;-88
2022/07/12 11:36:26;;;;;;;3.50;2.80;;;;;;;30.48;36.77;102353.00;5051005;28;20017;-86
2022/07/12 11:38:51;;;;;;;5.87;2.70;;;;;;;30.51;38.08;102344.78;5046688;28;20061;-86
2022/07/12 11:41:16;;;;;;;2.67;2.33;;;;;;;30.93;37.19;102345.31;5032136;28;20791;-86
2022/07/12 11:43:42;;;;;;;3.07;2.77;;;;;;;31.03;35.52;102341.19;5038179;28;20044;-86
2022/07/12 11:46:09;;;;;;;3.00;2.70;;;;;;;31.00;35.63;102336.38;5047013;28;20025;-85
2022/07/12 11:48:35;;;;;;;4.27;2.93;;;;;;;31.08;35.61;102338.91;5052345;28;20024;-85
2022/07/12 11:51:06;;;;;;;3.13;2.67;;;;;;;31.12;35.77;102341.75;5052495;28;20024;-86
2022/07/12 11:53:34;;;;;;;3.83;2.88;;;;;;;31.04;34.84;102351.09;5052162;28;20025;-85
2022/07/12 11:56:01;;;;;;;4.80;2.60;;;;;;;31.25;35.46;102343.22;5051815;28;20025;-85
2022/07/12 11:58:27;;;;;;;4.22;2.88;;;;;;;31.66;34.85;102345.59;5050548;28;20419;-86
2022/07/12 12:00:54;;;;;;;3.90;2.47;;;;;;;31.53;34.43;102352.44;5048149;28;20462;-86
2022/07/12 12:03:21;;;;;;;3.83;3.40;;;;;;;31.24;34.20;102351.91;5050793;28;20031;-85
2022/07/12 12:05:48;;;;;;;3.85;3.10;;;;;;;30.93;35.15;102348.88;5032362;28;21255;-86
2022/07/12 12:08:15;;;;;;;5.15;3.45;;;;;;;30.72;35.31;102335.38;5051751;28;20456;-86
2022/07/12 12:10:41;;;;;;;3.10;2.80;;;;;;;30.72;35.43;102334.56;5051996;28;20032;-86
2022/07/12 12:13:14;;;;;;;5.33;2.60;;;;;;;30.98;34.94;102339.47;5051358;28;20280;-85
2022/07/12 12:15:40;;;;;;;8.52;3.00;;;;;;;30.50;35.50;102334.06;5029707;28;20575;-86
2022/07/12 12:18:07;;;;;;;6.45;3.00;;;;;;;30.68;36.07;102331.72;5050046;28;20100;-85
2022/07/12 12:20:41;;;;;;;3.07;2.87;;;;;;;31.04;35.07;102326.97;5048840;28;20032;-85
2022/07/12 12:23:18;;;;;;;3.17;2.87;;;;;;;31.48;34.93;102320.31;5051166;28;20309;-85
2022/07/12 12:25:45;;;;;;;5.95;3.00;;;;;;;32.01;33.34;102325.25;5049387;28;20025;-87
2022/07/12 12:28:11;;;;;;;3.50;3.20;;;;;;;31.96;33.24;102324.72;5028745;28;20403;-87
2022/07/12 12:30:54;;;;;;;3.50;3.30;;;;;;;32.18;32.73;102321.13;5049358;28;20641;-87
2022/07/12 12:33:51;;;;;;;3.72;3.42;;;;;;;32.15;34.33;102330.19;5059484;28;20037;-87
2022/07/12 12:36:25;;;;;;;4.70;3.15;;;;;;;32.18;33.07;102329.47;5052081;28;20575;-86
2022/07/12 12:38:52;;;;;;;4.20;3.10;;;;;;;32.29;31.59;102320.56;5051375;28;20025;-86
2022/07/12 12:41:19;;;;;;;2.72;2.50;;;;;;;32.45;32.35;102323.97;5053258;28;20108;-86
2022/07/12 12:43:45;;;;;;;2.72;2.50;;;;;;;32.53;31.35;102324.03;5052203;28;20448;-87
2022/07/12 12:46:10;;;;;;;2.70;2.50;;;;;;;32.84;32.17;102317.38;5034789;28;20028;-86
2022/07/12 12:48:37;;;;;;;6.03;2.78;;;;;;;33.06;30.27;102320.41;5053091;28;20102;-87
2022/07/12 12:51:04;;;;;;;3.10;2.80;;;;;;;33.15;31.12;102309.78;5050200;28;20052;-87
2022/07/12 12:53:29;;;;;;;2.40;2.20;;;;;;;33.48;28.19;102307.38;5051789;28;20029;-87
2022/07/12 12:55:55;;;;;;;4.37;2.87;;;;;;;33.27;29.38;102294.84;5050971;28;20018;-86
2022/07/12 12:58:23;;;;;;;2.80;2.23;;;;;;;33.47;29.82;102309.38;5050122;28;20780;-85
2022/07/12 13:00:54;;;;;;;3.50;2.30;;;;;;;33.60;29.84;102309.09;5033953;28;20037;-86
2022/07/12 13:03:21;;;;;;;2.75;2.55;;;;;;;33.62;28.81;102310.28;5032845;28;20030;-87
2022/07/12 13:05:47;;;;;;;3.67;3.38;;;;;;;33.77;29.15;102321.56;5032869;28;20026;-86
2022/07/12 13:08:15;;;;;;;4.50;3.30;;;;;;;33.95;30.53;102321.72;5034688;28;20495;-86
2022/07/12 13:10:41;;;;;;;6.68;3.40;;;;;;;34.09;30.00;102310.72;5053518;28;20035;-86
2022/07/12 13:13:08;;;;;;;4.95;3.30;;;;;;;34.02;28.94;102313.44;5054214;28;20486;-86
2022/07/12 13:15:34;;;;;;;3.40;3.08;;;;;;;33.76;29.00;102308.84;5053666;28;20393;-86
2022/07/12 13:18:01;;;;;;;3.47;3.17;;;;;;;33.79;29.28;102317.22;5051464;28;20059;-86
2022/07/12 13:20:27;;;;;;;2.80;2.60;;;;;;;33.93;28.75;102310.19;5041040;28;20044;-87
2022/07/12 13:22:53;;;;;;;4.63;3.10;;;;;;;33.76;28.82;102297.72;5059468;28;20033;-85
2022/07/12 13:25:18;;;;;;;5.82;2.88;;;;;;;34.05;29.46;102295.19;5068152;28;20031;-89
2022/07/12 13:27:48;;;;;;;4.90;2.93;;;;;;;34.33;27.63;102296.56;5067159;28;20006;-88
2022/07/12 13:30:15;;;;;;;4.25;3.30;;;;;;;34.08;27.28;102294.44;5060537;28;20030;-85
2022/07/12 13:32:41;;;;;;;4.85;3.35;;;;;;;33.53;27.38;102293.94;5042832;28;20044;-85